sensor_id;sensor_type;location;lat;lon;timestamp;P1;durP1;ratioP1;P2;durP2;ratioP2
15693;SDS011;7947;48.834;9.132;2023-07-31T00:01:15;2.30;;;1.10;;
15693;SDS011;7947;48.834;9.132;2023-07-31T00:04:19;1.27;;;0.88;;
15693;SDS011;7947;48.834;9.132;2023-07-31T00:07:22;1.10;;;0.85;;
15693;SDS011;7947;48.834;9.132;2023-07-31T00:10:24;2.70;;;1.00;;
15693;SDS011;7947;48.834;9.132;2023-07-31T00:13:27;1.45;;;0.80;;
15693;SDS011;7947;48.834;9.132;2023-07-31T00:16:30;0.98;;;0.73;;
15693;SDS011;7947;48.834;9.132;2023-07-31T00:19:34;2.28;;;1.05;;
15693;SDS011;7947;48.834;9.132;2023-07-31T00:22:37;2.75;;;1.00;;
15693;SDS011;7947;48.834;9.132;2023-07-31T00:25:40;3.38;;;0.90;;
15693;SDS011;7947;48.834;9.132;2023-07-31T00:28:42;1.83;;;0.90;;
15693;SDS011;7947;48.834;9.132;2023-07-31T00:31:45;0.98;;;0.90;;
15693;SDS011;7947;48.834;9.132;2023-07-31T00:34:49;1.05;;;0.95;;
15693;SDS011;7947;48.834;9.132;2023-07-31T00:37:52;1.27;;;0.85;;
15693;SDS011;7947;48.834;9.132;2023-07-31T00:40:55;1.88;;;0.90;;
15693;SDS011;7947;48.834;9.132;2023-07-31T00:43:58;1.02;;;0.90;;
15693;SDS011;7947;48.834;9.132;2023-07-31T00:47:00;2.22;;;1.10;;
15693;SDS011;7947;48.834;9.132;2023-07-31T00:50:06;1.23;;;0.80;;
15693;SDS011;7947;48.834;9.132;2023-07-31T00:53:09;1.75;;;0.98;;
15693;SDS011;7947;48.834;9.132;2023-07-31T00:56:12;1.77;;;0.90;;
15693;SDS011;7947;48.834;9.132;2023-07-31T00:59:15;0.82;;;0.75;;
15693;SDS011;7947;48.834;9.132;2023-07-31T01:02:19;1.85;;;0.90;;
15693;SDS011;7947;48.834;9.132;2023-07-31T01:05:25;2.90;;;1.05;;
15693;SDS011;7947;48.834;9.132;2023-07-31T01:08:36;1.48;;;1.02;;
15693;SDS011;7947;48.834;9.132;2023-07-31T01:11:46;2.95;;;1.17;;
15693;SDS011;7947;48.834;9.132;2023-07-31T01:15:02;3.50;;;1.10;;
15693;SDS011;7947;48.834;9.132;2023-07-31T01:18:05;1.58;;;1.08;;
15693;SDS011;7947;48.834;9.132;2023-07-31T01:21:15;1.80;;;0.80;;
15693;SDS011;7947;48.834;9.132;2023-07-31T01:24:28;1.58;;;0.90;;
15693;SDS011;7947;48.834;9.132;2023-07-31T01:27:39;2.50;;;1.00;;
15693;SDS011;7947;48.834;9.132;2023-07-31T01:30:53;2.15;;;1.08;;
15693;SDS011;7947;48.834;9.132;2023-07-31T01:34:01;1.50;;;0.93;;
15693;SDS011;7947;48.834;9.132;2023-07-31T01:37:04;2.28;;;1.00;;
15693;SDS011;7947;48.834;9.132;2023-07-31T01:40:07;1.27;;;0.80;;
15693;SDS011;7947;48.834;9.132;2023-07-31T01:43:12;3.03;;;1.02;;
15693;SDS011;7947;48.834;9.132;2023-07-31T01:46:15;2.05;;;0.90;;
15693;SDS011;7947;48.834;9.132;2023-07-31T01:49:18;1.40;;;1.20;;
15693;SDS011;7947;48.834;9.132;2023-07-31T01:52:20;2.63;;;1.08;;
15693;SDS011;7947;48.834;9.132;2023-07-31T01:55:23;1.50;;;0.95;;
15693;SDS011;7947;48.834;9.132;2023-07-31T01:58:27;1.10;;;0.90;;
15693;SDS011;7947;48.834;9.132;2023-07-31T02:01:30;1.15;;;0.90;;
15693;SDS011;7947;48.834;9.132;2023-07-31T02:04:33;3.35;;;1.17;;
15693;SDS011;7947;48.834;9.132;2023-07-31T02:07:35;1.35;;;0.98;;
15693;SDS011;7947;48.834;9.132;2023-07-31T02:10:38;1.15;;;0.98;;
15693;SDS011;7947;48.834;9.132;2023-07-31T02:13:42;1.73;;;1.00;;
15693;SDS011;7947;48.834;9.132;2023-07-31T02:16:45;1.42;;;1.25;;
15693;SDS011;7947;48.834;9.132;2023-07-31T02:19:48;1.77;;;0.98;;
15693;SDS011;7947;48.834;9.132;2023-07-31T02:22:50;2.75;;;1.17;;
15693;SDS011;7947;48.834;9.132;2023-07-31T02:25:53;2.22;;;1.13;;
15693;SDS011;7947;48.834;9.132;2023-07-31T02:28:57;1.02;;;0.88;;
15693;SDS011;7947;48.834;9.132;2023-07-31T02:32:00;1.00;;;0.80;;
15693;SDS011;7947;48.834;9.132;2023-07-31T02:35:03;2.92;;;0.98;;
15693;SDS011;7947;48.834;9.132;2023-07-31T02:38:07;0.95;;;0.80;;
15693;SDS011;7947;48.834;9.132;2023-07-31T02:41:09;4.55;;;1.00;;
15693;SDS011;7947;48.834;9.132;2023-07-31T02:44:13;2.50;;;1.17;;
15693;SDS011;7947;48.834;9.132;2023-07-31T02:47:16;2.70;;;1.08;;
15693;SDS011;7947;48.834;9.132;2023-07-31T02:50:19;3.45;;;1.15;;
15693;SDS011;7947;48.834;9.132;2023-07-31T02:53:22;0.90;;;0.82;;
15693;SDS011;7947;48.834;9.132;2023-07-31T02:56:24;1.77;;;0.95;;
15693;SDS011;7947;48.834;9.132;2023-07-31T02:59:29;1.75;;;1.10;;
15693;SDS011;7947;48.834;9.132;2023-07-31T03:02:31;1.55;;;1.10;;
15693;SDS011;7947;48.834;9.132;2023-07-31T03:05:34;4.07;;;1.10;;
15693;SDS011;7947;48.834;9.132;2023-07-31T03:08:37;2.28;;;1.25;;
15693;SDS011;7947;48.834;9.132;2023-07-31T03:11:40;1.88;;;0.90;;
15693;SDS011;7947;48.834;9.132;2023-07-31T03:14:44;1.77;;;1.17;;
15693;SDS011;7947;48.834;9.132;2023-07-31T03:17:47;1.67;;;1.30;;
15693;SDS011;7947;48.834;9.132;2023-07-31T03:20:49;1.23;;;0.95;;
15693;SDS011;7947;48.834;9.132;2023-07-31T03:23:52;1.67;;;0.93;;
15693;SDS011;7947;48.834;9.132;2023-07-31T03:26:55;1.73;;;1.00;;
15693;SDS011;7947;48.834;9.132;2023-07-31T03:29:59;2.83;;;1.10;;
15693;SDS011;7947;48.834;9.132;2023-07-31T03:33:02;1.98;;;1.23;;
15693;SDS011;7947;48.834;9.132;2023-07-31T03:36:05;1.35;;;0.93;;
15693;SDS011;7947;48.834;9.132;2023-07-31T03:39:08;2.03;;;1.13;;
15693;SDS011;7947;48.834;9.132;2023-07-31T03:42:11;3.60;;;1.25;;
15693;SDS011;7947;48.834;9.132;2023-07-31T03:45:15;0.88;;;0.88;;
15693;SDS011;7947;48.834;9.132;2023-07-31T03:48:18;1.15;;;0.85;;
15693;SDS011;7947;48.834;9.132;2023-07-31T03:51:20;1.70;;;1.10;;
15693;SDS011;7947;48.834;9.132;2023-07-31T03:54:23;2.08;;;1.15;;
15693;SDS011;7947;48.834;9.132;2023-07-31T03:57:26;2.28;;;1.30;;
15693;SDS011;7947;48.834;9.132;2023-07-31T04:00:30;1.52;;;0.98;;
15693;SDS011;7947;48.834;9.132;2023-07-31T04:03:33;2.65;;;1.13;;
15693;SDS011;7947;48.834;9.132;2023-07-31T04:06:36;4.18;;;1.40;;
15693;SDS011;7947;48.834;9.132;2023-07-31T04:09:39;2.22;;;0.85;;
15693;SDS011;7947;48.834;9.132;2023-07-31T04:12:41;2.83;;;1.08;;
15693;SDS011;7947;48.834;9.132;2023-07-31T04:15:48;1.05;;;0.85;;
15693;SDS011;7947;48.834;9.132;2023-07-31T04:18:52;2.20;;;1.40;;
15693;SDS011;7947;48.834;9.132;2023-07-31T04:21:54;1.75;;;1.17;;
15693;SDS011;7947;48.834;9.132;2023-07-31T04:24:57;1.30;;;0.90;;
15693;SDS011;7947;48.834;9.132;2023-07-31T04:28:00;3.05;;;1.40;;
15693;SDS011;7947;48.834;9.132;2023-07-31T04:31:04;2.38;;;1.02;;
15693;SDS011;7947;48.834;9.132;2023-07-31T04:34:07;1.65;;;0.98;;
15693;SDS011;7947;48.834;9.132;2023-07-31T04:37:09;1.13;;;0.90;;
15693;SDS011;7947;48.834;9.132;2023-07-31T04:40:12;3.75;;;1.20;;
15693;SDS011;7947;48.834;9.132;2023-07-31T04:43:15;1.98;;;0.93;;
15693;SDS011;7947;48.834;9.132;2023-07-31T04:46:19;2.42;;;1.00;;
15693;SDS011;7947;48.834;9.132;2023-07-31T04:49:22;1.33;;;0.98;;
15693;SDS011;7947;48.834;9.132;2023-07-31T04:52:25;2.03;;;1.10;;
15693;SDS011;7947;48.834;9.132;2023-07-31T04:55:28;1.45;;;1.10;;
15693;SDS011;7947;48.834;9.132;2023-07-31T04:58:30;1.85;;;0.90;;
15693;SDS011;7947;48.834;9.132;2023-07-31T05:01:34;4.45;;;1.20;;
15693;SDS011;7947;48.834;9.132;2023-07-31T05:04:37;3.20;;;1.20;;
15693;SDS011;7947;48.834;9.132;2023-07-31T05:07:40;2.03;;;1.13;;
15693;SDS011;7947;48.834;9.132;2023-07-31T05:10:43;2.65;;;1.15;;
15693;SDS011;7947;48.834;9.132;2023-07-31T05:13:45;3.47;;;1.27;;
15693;SDS011;7947;48.834;9.132;2023-07-31T05:16:50;4.03;;;1.17;;
15693;SDS011;7947;48.834;9.132;2023-07-31T05:19:52;1.90;;;1.15;;
15693;SDS011;7947;48.834;9.132;2023-07-31T05:22:55;2.30;;;1.15;;
15693;SDS011;7947;48.834;9.132;2023-07-31T05:26:02;5.13;;;1.45;;
15693;SDS011;7947;48.834;9.132;2023-07-31T05:29:05;2.03;;;1.05;;
15693;SDS011;7947;48.834;9.132;2023-07-31T05:32:09;1.08;;;0.70;;
15693;SDS011;7947;48.834;9.132;2023-07-31T05:35:12;1.90;;;0.75;;
15693;SDS011;7947;48.834;9.132;2023-07-31T05:38:15;4.03;;;0.98;;
15693;SDS011;7947;48.834;9.132;2023-07-31T05:41:17;2.45;;;1.05;;
15693;SDS011;7947;48.834;9.132;2023-07-31T05:44:20;1.30;;;0.95;;
15693;SDS011;7947;48.834;9.132;2023-07-31T05:47:24;2.92;;;1.00;;
15693;SDS011;7947;48.834;9.132;2023-07-31T05:50:27;1.95;;;0.82;;
15693;SDS011;7947;48.834;9.132;2023-07-31T05:53:30;2.15;;;1.33;;
15693;SDS011;7947;48.834;9.132;2023-07-31T05:56:33;3.63;;;1.08;;
15693;SDS011;7947;48.834;9.132;2023-07-31T05:59:36;1.48;;;1.00;;
15693;SDS011;7947;48.834;9.132;2023-07-31T06:02:40;2.15;;;0.93;;
15693;SDS011;7947;48.834;9.132;2023-07-31T06:05:43;1.20;;;1.10;;
15693;SDS011;7947;48.834;9.132;2023-07-31T06:08:46;1.27;;;0.98;;
15693;SDS011;7947;48.834;9.132;2023-07-31T06:11:48;2.58;;;1.05;;
15693;SDS011;7947;48.834;9.132;2023-07-31T06:14:51;3.38;;;1.20;;
15693;SDS011;7947;48.834;9.132;2023-07-31T06:17:55;3.60;;;1.17;;
15693;SDS011;7947;48.834;9.132;2023-07-31T06:21:00;3.55;;;1.23;;
15693;SDS011;7947;48.834;9.132;2023-07-31T06:24:03;2.60;;;1.33;;
15693;SDS011;7947;48.834;9.132;2023-07-31T06:27:06;3.17;;;1.30;;
15693;SDS011;7947;48.834;9.132;2023-07-31T06:30:09;2.75;;;1.33;;
15693;SDS011;7947;48.834;9.132;2023-07-31T06:33:14;2.65;;;1.27;;
15693;SDS011;7947;48.834;9.132;2023-07-31T06:36:17;1.48;;;0.98;;
15693;SDS011;7947;48.834;9.132;2023-07-31T06:39:19;1.90;;;1.23;;
15693;SDS011;7947;48.834;9.132;2023-07-31T06:42:22;5.53;;;1.20;;
15693;SDS011;7947;48.834;9.132;2023-07-31T06:45:25;2.38;;;1.30;;
15693;SDS011;7947;48.834;9.132;2023-07-31T06:48:29;1.90;;;1.10;;
15693;SDS011;7947;48.834;9.132;2023-07-31T06:51:32;3.20;;;1.55;;
15693;SDS011;7947;48.834;9.132;2023-07-31T06:54:35;2.13;;;1.35;;
15693;SDS011;7947;48.834;9.132;2023-07-31T06:57:37;1.40;;;0.90;;
15693;SDS011;7947;48.834;9.132;2023-07-31T07:00:40;1.25;;;0.82;;
15693;SDS011;7947;48.834;9.132;2023-07-31T07:03:44;1.92;;;1.10;;
15693;SDS011;7947;48.834;9.132;2023-07-31T07:06:47;2.35;;;1.10;;
15693;SDS011;7947;48.834;9.132;2023-07-31T07:09:50;2.50;;;1.33;;
15693;SDS011;7947;48.834;9.132;2023-07-31T07:12:53;3.20;;;1.17;;
15693;SDS011;7947;48.834;9.132;2023-07-31T07:15:57;2.58;;;1.10;;
15693;SDS011;7947;48.834;9.132;2023-07-31T07:19:01;1.63;;;1.00;;
15693;SDS011;7947;48.834;9.132;2023-07-31T07:22:05;1.77;;;1.38;;
15693;SDS011;7947;48.834;9.132;2023-07-31T07:25:08;5.53;;;1.42;;
15693;SDS011;7947;48.834;9.132;2023-07-31T07:28:11;1.55;;;1.17;;
15693;SDS011;7947;48.834;9.132;2023-07-31T07:31:14;2.13;;;1.10;;
15693;SDS011;7947;48.834;9.132;2023-07-31T07:34:18;4.15;;;1.25;;
15693;SDS011;7947;48.834;9.132;2023-07-31T07:37:21;3.75;;;1.27;;
15693;SDS011;7947;48.834;9.132;2023-07-31T07:40:24;3.78;;;1.33;;
15693;SDS011;7947;48.834;9.132;2023-07-31T07:43:26;1.83;;;1.30;;
15693;SDS011;7947;48.834;9.132;2023-07-31T07:46:29;3.10;;;1.20;;
15693;SDS011;7947;48.834;9.132;2023-07-31T07:49:34;2.30;;;1.45;;
15693;SDS011;7947;48.834;9.132;2023-07-31T07:52:37;3.58;;;1.65;;
15693;SDS011;7947;48.834;9.132;2023-07-31T07:55:40;4.00;;;1.88;;
15693;SDS011;7947;48.834;9.132;2023-07-31T07:58:42;3.55;;;1.40;;
15693;SDS011;7947;48.834;9.132;2023-07-31T08:01:45;2.33;;;1.23;;
15693;SDS011;7947;48.834;9.132;2023-07-31T08:04:49;3.00;;;1.30;;
15693;SDS011;7947;48.834;9.132;2023-07-31T08:07:53;4.38;;;1.50;;
15693;SDS011;7947;48.834;9.132;2023-07-31T08:10:55;3.88;;;1.75;;
15693;SDS011;7947;48.834;9.132;2023-07-31T08:13:58;1.85;;;1.30;;
15693;SDS011;7947;48.834;9.132;2023-07-31T08:17:01;2.17;;;1.10;;
15693;SDS011;7947;48.834;9.132;2023-07-31T08:20:06;1.63;;;0.98;;
15693;SDS011;7947;48.834;9.132;2023-07-31T08:23:10;1.90;;;1.00;;
15693;SDS011;7947;48.834;9.132;2023-07-31T08:26:16;4.25;;;1.52;;
15693;SDS011;7947;48.834;9.132;2023-07-31T08:29:20;2.05;;;1.30;;
15693;SDS011;7947;48.834;9.132;2023-07-31T08:32:23;2.63;;;1.25;;
15693;SDS011;7947;48.834;9.132;2023-07-31T08:35:27;2.88;;;1.60;;
15693;SDS011;7947;48.834;9.132;2023-07-31T08:38:30;4.25;;;1.30;;
15693;SDS011;7947;48.834;9.132;2023-07-31T08:41:37;4.10;;;1.20;;
15693;SDS011;7947;48.834;9.132;2023-07-31T08:44:40;2.42;;;1.33;;
15693;SDS011;7947;48.834;9.132;2023-07-31T08:47:44;3.67;;;1.55;;
15693;SDS011;7947;48.834;9.132;2023-07-31T08:50:50;2.08;;;1.10;;
15693;SDS011;7947;48.834;9.132;2023-07-31T08:53:54;6.07;;;1.48;;
15693;SDS011;7947;48.834;9.132;2023-07-31T08:56:56;2.97;;;1.20;;
15693;SDS011;7947;48.834;9.132;2023-07-31T09:00:01;2.85;;;1.40;;
15693;SDS011;7947;48.834;9.132;2023-07-31T09:03:07;2.72;;;1.20;;
15693;SDS011;7947;48.834;9.132;2023-07-31T09:06:13;4.45;;;1.50;;
15693;SDS011;7947;48.834;9.132;2023-07-31T09:09:18;3.08;;;1.35;;
15693;SDS011;7947;48.834;9.132;2023-07-31T09:12:21;3.85;;;1.40;;
15693;SDS011;7947;48.834;9.132;2023-07-31T09:15:24;4.15;;;1.70;;
15693;SDS011;7947;48.834;9.132;2023-07-31T09:18:52;3.20;;;1.60;;
15693;SDS011;7947;48.834;9.132;2023-07-31T09:21:59;2.88;;;1.45;;
15693;SDS011;7947;48.834;9.132;2023-07-31T09:25:05;5.68;;;1.38;;
15693;SDS011;7947;48.834;9.132;2023-07-31T09:28:17;1.33;;;1.20;;
15693;SDS011;7947;48.834;9.132;2023-07-31T09:31:30;4.45;;;1.27;;
15693;SDS011;7947;48.834;9.132;2023-07-31T09:34:36;3.63;;;1.63;;
15693;SDS011;7947;48.834;9.132;2023-07-31T09:37:42;2.00;;;1.23;;
15693;SDS011;7947;48.834;9.132;2023-07-31T09:40:45;5.35;;;1.75;;
15693;SDS011;7947;48.834;9.132;2023-07-31T09:43:52;4.03;;;1.60;;
15693;SDS011;7947;48.834;9.132;2023-07-31T09:46:56;1.50;;;1.20;;
15693;SDS011;7947;48.834;9.132;2023-07-31T09:49:58;4.10;;;1.50;;
15693;SDS011;7947;48.834;9.132;2023-07-31T09:53:03;3.40;;;1.83;;
15693;SDS011;7947;48.834;9.132;2023-07-31T09:56:05;4.45;;;1.90;;
15693;SDS011;7947;48.834;9.132;2023-07-31T09:59:10;2.50;;;1.33;;
15693;SDS011;7947;48.834;9.132;2023-07-31T10:02:15;1.67;;;1.27;;
15693;SDS011;7947;48.834;9.132;2023-07-31T10:05:22;4.22;;;1.73;;
15693;SDS011;7947;48.834;9.132;2023-07-31T10:08:27;1.75;;;1.10;;
15693;SDS011;7947;48.834;9.132;2023-07-31T10:11:33;2.60;;;1.17;;
15693;SDS011;7947;48.834;9.132;2023-07-31T10:14:40;2.80;;;1.50;;
15693;SDS011;7947;48.834;9.132;2023-07-31T10:17:44;2.05;;;1.30;;
15693;SDS011;7947;48.834;9.132;2023-07-31T10:20:49;2.80;;;1.60;;
15693;SDS011;7947;48.834;9.132;2023-07-31T10:23:54;3.30;;;1.23;;
15693;SDS011;7947;48.834;9.132;2023-07-31T10:26:59;3.38;;;1.50;;
15693;SDS011;7947;48.834;9.132;2023-07-31T10:30:04;3.10;;;1.30;;
15693;SDS011;7947;48.834;9.132;2023-07-31T10:33:10;1.92;;;1.60;;
15693;SDS011;7947;48.834;9.132;2023-07-31T10:36:13;4.72;;;1.58;;
15693;SDS011;7947;48.834;9.132;2023-07-31T10:39:35;2.10;;;1.20;;
15693;SDS011;7947;48.834;9.132;2023-07-31T10:42:44;2.20;;;1.27;;
15693;SDS011;7947;48.834;9.132;2023-07-31T10:45:50;4.78;;;1.85;;
15693;SDS011;7947;48.834;9.132;2023-07-31T10:48:57;5.32;;;1.45;;
15693;SDS011;7947;48.834;9.132;2023-07-31T10:52:02;4.03;;;1.55;;
15693;SDS011;7947;48.834;9.132;2023-07-31T10:58:29;4.18;;;1.33;;
15693;SDS011;7947;48.834;9.132;2023-07-31T11:01:51;2.67;;;1.60;;
15693;SDS011;7947;48.834;9.132;2023-07-31T11:05:06;2.28;;;1.20;;
15693;SDS011;7947;48.834;9.132;2023-07-31T11:08:10;3.95;;;1.77;;
15693;SDS011;7947;48.834;9.132;2023-07-31T11:11:16;2.40;;;1.33;;
15693;SDS011;7947;48.834;9.132;2023-07-31T11:14:20;2.65;;;1.40;;
15693;SDS011;7947;48.834;9.132;2023-07-31T11:17:24;3.70;;;1.70;;
15693;SDS011;7947;48.834;9.132;2023-07-31T11:20:28;4.80;;;1.50;;
15693;SDS011;7947;48.834;9.132;2023-07-31T11:23:32;2.95;;;1.38;;
15693;SDS011;7947;48.834;9.132;2023-07-31T11:26:36;2.35;;;1.27;;
15693;SDS011;7947;48.834;9.132;2023-07-31T11:29:39;3.25;;;1.63;;
15693;SDS011;7947;48.834;9.132;2023-07-31T11:32:42;2.53;;;1.70;;
15693;SDS011;7947;48.834;9.132;2023-07-31T11:35:45;5.15;;;1.77;;
15693;SDS011;7947;48.834;9.132;2023-07-31T11:38:50;3.45;;;1.33;;
15693;SDS011;7947;48.834;9.132;2023-07-31T11:41:59;2.40;;;1.50;;
15693;SDS011;7947;48.834;9.132;2023-07-31T11:45:03;6.50;;;1.65;;
15693;SDS011;7947;48.834;9.132;2023-07-31T11:48:06;4.55;;;1.70;;
15693;SDS011;7947;48.834;9.132;2023-07-31T11:51:10;5.00;;;1.30;;
15693;SDS011;7947;48.834;9.132;2023-07-31T11:54:14;3.33;;;1.60;;
15693;SDS011;7947;48.834;9.132;2023-07-31T11:57:19;2.53;;;1.65;;
15693;SDS011;7947;48.834;9.132;2023-07-31T12:00:23;3.20;;;1.65;;
15693;SDS011;7947;48.834;9.132;2023-07-31T12:03:26;3.08;;;1.40;;
15693;SDS011;7947;48.834;9.132;2023-07-31T12:06:33;3.72;;;1.50;;
15693;SDS011;7947;48.834;9.132;2023-07-31T12:09:36;2.83;;;1.50;;
15693;SDS011;7947;48.834;9.132;2023-07-31T12:12:40;2.75;;;1.75;;
15693;SDS011;7947;48.834;9.132;2023-07-31T12:15:44;4.53;;;1.50;;
15693;SDS011;7947;48.834;9.132;2023-07-31T12:18:49;4.72;;;2.10;;
15693;SDS011;7947;48.834;9.132;2023-07-31T12:21:52;3.83;;;1.67;;
15693;SDS011;7947;48.834;9.132;2023-07-31T12:24:54;3.40;;;1.88;;
15693;SDS011;7947;48.834;9.132;2023-07-31T12:27:59;3.75;;;1.67;;
15693;SDS011;7947;48.834;9.132;2023-07-31T12:31:08;2.95;;;1.73;;
15693;SDS011;7947;48.834;9.132;2023-07-31T12:34:15;2.42;;;1.30;;
15693;SDS011;7947;48.834;9.132;2023-07-31T12:37:20;3.40;;;1.70;;
15693;SDS011;7947;48.834;9.132;2023-07-31T12:40:23;3.75;;;1.45;;
15693;SDS011;7947;48.834;9.132;2023-07-31T12:43:34;5.75;;;1.75;;
15693;SDS011;7947;48.834;9.132;2023-07-31T12:46:37;2.67;;;1.50;;
15693;SDS011;7947;48.834;9.132;2023-07-31T12:49:41;2.30;;;1.65;;
15693;SDS011;7947;48.834;9.132;2023-07-31T12:52:44;2.85;;;1.75;;
15693;SDS011;7947;48.834;9.132;2023-07-31T12:55:46;1.98;;;1.30;;
15693;SDS011;7947;48.834;9.132;2023-07-31T12:58:51;3.97;;;1.70;;
15693;SDS011;7947;48.834;9.132;2023-07-31T13:01:53;3.92;;;1.30;;
15693;SDS011;7947;48.834;9.132;2023-07-31T13:04:56;2.55;;;1.23;;
15693;SDS011;7947;48.834;9.132;2023-07-31T13:07:59;1.65;;;1.40;;
15693;SDS011;7947;48.834;9.132;2023-07-31T13:11:02;3.22;;;1.70;;
15693;SDS011;7947;48.834;9.132;2023-07-31T13:14:06;5.10;;;1.92;;
15693;SDS011;7947;48.834;9.132;2023-07-31T13:17:09;2.80;;;1.60;;
15693;SDS011;7947;48.834;9.132;2023-07-31T13:20:12;3.22;;;1.45;;
15693;SDS011;7947;48.834;9.132;2023-07-31T13:23:15;3.03;;;1.77;;
15693;SDS011;7947;48.834;9.132;2023-07-31T13:26:17;2.85;;;1.48;;
15693;SDS011;7947;48.834;9.132;2023-07-31T13:29:21;2.00;;;1.20;;
15693;SDS011;7947;48.834;9.132;2023-07-31T13:32:25;3.03;;;1.50;;
15693;SDS011;7947;48.834;9.132;2023-07-31T13:35:28;2.63;;;1.70;;
15693;SDS011;7947;48.834;9.132;2023-07-31T13:38:32;2.40;;;1.30;;
15693;SDS011;7947;48.834;9.132;2023-07-31T13:41:35;2.72;;;1.70;;
15693;SDS011;7947;48.834;9.132;2023-07-31T13:44:40;2.28;;;1.50;;
15693;SDS011;7947;48.834;9.132;2023-07-31T13:47:43;4.13;;;1.50;;
15693;SDS011;7947;48.834;9.132;2023-07-31T13:50:46;2.25;;;1.70;;
15693;SDS011;7947;48.834;9.132;2023-07-31T13:53:48;1.92;;;1.27;;
15693;SDS011;7947;48.834;9.132;2023-07-31T13:56:51;2.90;;;1.58;;
15693;SDS011;7947;48.834;9.132;2023-07-31T13:59:56;2.05;;;1.55;;
15693;SDS011;7947;48.834;9.132;2023-07-31T14:02:58;2.17;;;1.50;;
15693;SDS011;7947;48.834;9.132;2023-07-31T14:06:01;2.10;;;1.63;;
15693;SDS011;7947;48.834;9.132;2023-07-31T14:09:04;1.95;;;1.30;;
15693;SDS011;7947;48.834;9.132;2023-07-31T14:12:07;2.17;;;1.48;;
15693;SDS011;7947;48.834;9.132;2023-07-31T14:15:12;2.90;;;1.48;;
15693;SDS011;7947;48.834;9.132;2023-07-31T14:18:14;3.33;;;1.42;;
15693;SDS011;7947;48.834;9.132;2023-07-31T14:21:17;2.60;;;1.65;;
15693;SDS011;7947;48.834;9.132;2023-07-31T14:24:21;3.13;;;1.63;;
15693;SDS011;7947;48.834;9.132;2023-07-31T14:27:23;2.50;;;1.60;;
15693;SDS011;7947;48.834;9.132;2023-07-31T14:30:28;3.33;;;1.70;;
15693;SDS011;7947;48.834;9.132;2023-07-31T14:33:31;3.42;;;1.38;;
15693;SDS011;7947;48.834;9.132;2023-07-31T14:36:34;2.55;;;1.58;;
15693;SDS011;7947;48.834;9.132;2023-07-31T14:39:37;1.83;;;1.42;;
15693;SDS011;7947;48.834;9.132;2023-07-31T14:42:41;1.70;;;1.27;;
15693;SDS011;7947;48.834;9.132;2023-07-31T14:45:45;2.13;;;1.50;;
15693;SDS011;7947;48.834;9.132;2023-07-31T14:48:48;2.40;;;1.33;;
15693;SDS011;7947;48.834;9.132;2023-07-31T14:51:51;1.92;;;1.17;;
15693;SDS011;7947;48.834;9.132;2023-07-31T14:54:54;4.28;;;1.75;;
15693;SDS011;7947;48.834;9.132;2023-07-31T14:57:57;3.30;;;1.63;;
15693;SDS011;7947;48.834;9.132;2023-07-31T15:01:01;2.00;;;1.40;;
15693;SDS011;7947;48.834;9.132;2023-07-31T15:04:04;2.85;;;1.33;;
15693;SDS011;7947;48.834;9.132;2023-07-31T15:07:07;2.67;;;1.60;;
15693;SDS011;7947;48.834;9.132;2023-07-31T15:10:10;1.73;;;1.27;;
15693;SDS011;7947;48.834;9.132;2023-07-31T15:13:12;2.22;;;1.67;;
15693;SDS011;7947;48.834;9.132;2023-07-31T15:16:17;2.75;;;1.40;;
15693;SDS011;7947;48.834;9.132;2023-07-31T15:19:21;2.97;;;1.60;;
15693;SDS011;7947;48.834;9.132;2023-07-31T15:22:24;3.17;;;1.67;;
15693;SDS011;7947;48.834;9.132;2023-07-31T15:25:28;2.60;;;1.63;;
15693;SDS011;7947;48.834;9.132;2023-07-31T15:28:31;3.42;;;1.17;;
15693;SDS011;7947;48.834;9.132;2023-07-31T15:31:37;3.65;;;1.80;;
15693;SDS011;7947;48.834;9.132;2023-07-31T15:34:41;1.50;;;1.20;;
15693;SDS011;7947;48.834;9.132;2023-07-31T15:37:43;2.42;;;1.38;;
15693;SDS011;7947;48.834;9.132;2023-07-31T15:40:46;3.22;;;1.52;;
15693;SDS011;7947;48.834;9.132;2023-07-31T15:43:50;3.65;;;1.52;;
15693;SDS011;7947;48.834;9.132;2023-07-31T15:46:55;2.63;;;1.48;;
15693;SDS011;7947;48.834;9.132;2023-07-31T15:49:57;2.05;;;1.30;;
15693;SDS011;7947;48.834;9.132;2023-07-31T15:53:00;1.80;;;1.02;;
15693;SDS011;7947;48.834;9.132;2023-07-31T15:56:03;2.97;;;1.48;;
15693;SDS011;7947;48.834;9.132;2023-07-31T15:59:06;3.50;;;1.38;;
15693;SDS011;7947;48.834;9.132;2023-07-31T16:02:10;2.20;;;1.40;;
15693;SDS011;7947;48.834;9.132;2023-07-31T16:05:13;2.45;;;1.38;;
15693;SDS011;7947;48.834;9.132;2023-07-31T16:08:16;3.28;;;1.23;;
15693;SDS011;7947;48.834;9.132;2023-07-31T16:11:19;1.95;;;1.23;;
15693;SDS011;7947;48.834;9.132;2023-07-31T16:14:22;1.92;;;1.50;;
15693;SDS011;7947;48.834;9.132;2023-07-31T16:17:26;3.25;;;1.65;;
15693;SDS011;7947;48.834;9.132;2023-07-31T16:20:29;1.98;;;1.38;;
15693;SDS011;7947;48.834;9.132;2023-07-31T16:23:32;1.45;;;1.33;;
15693;SDS011;7947;48.834;9.132;2023-07-31T16:26:35;3.30;;;1.50;;
15693;SDS011;7947;48.834;9.132;2023-07-31T16:29:38;3.75;;;1.83;;
15693;SDS011;7947;48.834;9.132;2023-07-31T16:32:42;3.35;;;1.55;;
15693;SDS011;7947;48.834;9.132;2023-07-31T16:35:48;2.10;;;1.40;;
15693;SDS011;7947;48.834;9.132;2023-07-31T16:38:51;4.28;;;1.58;;
15693;SDS011;7947;48.834;9.132;2023-07-31T16:41:54;2.75;;;1.65;;
15693;SDS011;7947;48.834;9.132;2023-07-31T16:44:56;2.45;;;1.65;;
15693;SDS011;7947;48.834;9.132;2023-07-31T16:48:01;2.17;;;1.42;;
15693;SDS011;7947;48.834;9.132;2023-07-31T16:51:04;2.25;;;1.40;;
15693;SDS011;7947;48.834;9.132;2023-07-31T16:54:06;2.38;;;1.33;;
15693;SDS011;7947;48.834;9.132;2023-07-31T16:57:09;2.03;;;1.70;;
15693;SDS011;7947;48.834;9.132;2023-07-31T17:00:12;2.17;;;1.55;;
15693;SDS011;7947;48.834;9.132;2023-07-31T17:03:17;2.25;;;1.42;;
15693;SDS011;7947;48.834;9.132;2023-07-31T17:06:20;3.05;;;1.50;;
15693;SDS011;7947;48.834;9.132;2023-07-31T17:09:23;3.17;;;1.70;;
15693;SDS011;7947;48.834;9.132;2023-07-31T17:12:26;3.00;;;1.90;;
15693;SDS011;7947;48.834;9.132;2023-07-31T17:15:29;4.32;;;1.65;;
15693;SDS011;7947;48.834;9.132;2023-07-31T17:18:33;3.13;;;1.65;;
15693;SDS011;7947;48.834;9.132;2023-07-31T17:21:36;2.90;;;1.40;;
15693;SDS011;7947;48.834;9.132;2023-07-31T17:24:39;1.55;;;1.25;;
15693;SDS011;7947;48.834;9.132;2023-07-31T17:27:42;2.53;;;1.45;;
15693;SDS011;7947;48.834;9.132;2023-07-31T17:30:45;2.78;;;1.73;;
15693;SDS011;7947;48.834;9.132;2023-07-31T17:33:51;2.40;;;1.10;;
15693;SDS011;7947;48.834;9.132;2023-07-31T17:36:54;2.72;;;1.38;;
15693;SDS011;7947;48.834;9.132;2023-07-31T17:39:57;3.25;;;1.60;;
15693;SDS011;7947;48.834;9.132;2023-07-31T17:43:00;5.03;;;1.50;;
15693;SDS011;7947;48.834;9.132;2023-07-31T17:46:03;2.45;;;1.50;;
15693;SDS011;7947;48.834;9.132;2023-07-31T17:49:07;6.45;;;1.77;;
15693;SDS011;7947;48.834;9.132;2023-07-31T17:52:11;5.75;;;1.38;;
15693;SDS011;7947;48.834;9.132;2023-07-31T17:55:15;2.60;;;1.55;;
15693;SDS011;7947;48.834;9.132;2023-07-31T17:58:18;2.78;;;1.73;;
15693;SDS011;7947;48.834;9.132;2023-07-31T18:01:21;1.80;;;1.50;;
15693;SDS011;7947;48.834;9.132;2023-07-31T18:04:25;3.20;;;1.70;;
15693;SDS011;7947;48.834;9.132;2023-07-31T18:07:28;2.70;;;1.40;;
15693;SDS011;7947;48.834;9.132;2023-07-31T18:10:30;2.70;;;1.45;;
15693;SDS011;7947;48.834;9.132;2023-07-31T18:13:35;4.10;;;1.80;;
15693;SDS011;7947;48.834;9.132;2023-07-31T18:16:37;3.63;;;1.77;;
15693;SDS011;7947;48.834;9.132;2023-07-31T18:19:42;2.90;;;1.38;;
15693;SDS011;7947;48.834;9.132;2023-07-31T18:22:45;2.80;;;1.92;;
15693;SDS011;7947;48.834;9.132;2023-07-31T18:25:48;3.55;;;1.52;;
15693;SDS011;7947;48.834;9.132;2023-07-31T18:28:50;3.25;;;1.58;;
15693;SDS011;7947;48.834;9.132;2023-07-31T18:31:53;2.00;;;1.42;;
15693;SDS011;7947;48.834;9.132;2023-07-31T18:34:57;3.08;;;1.92;;
15693;SDS011;7947;48.834;9.132;2023-07-31T18:38:00;3.00;;;1.80;;
15693;SDS011;7947;48.834;9.132;2023-07-31T18:41:04;3.08;;;1.77;;
15693;SDS011;7947;48.834;9.132;2023-07-31T18:44:08;2.35;;;1.50;;
15693;SDS011;7947;48.834;9.132;2023-07-31T18:47:11;5.10;;;1.75;;